^^
Grace C. Lehan Memorial Weather Station Historical Data
Daily Summary for June 27, 2021 Units:  Metric    English   Both
Daily Weekly Monthly Yearly
  High: Low: Average:
Temperature: 25.5 °C 18.4 °C 20.9 °C
Dew Point: 19.8 °C 12.6 °C 18.2 °C
Humidity: 97% 46% 86%
Wind Speed: 13.5km/h 0km/h 1.9km/h
Wind Gust: 33.8km/h - -
Wind- - WNW
Pressure: 1012.8 hPa 1009.4 hPa -
Precipitation: 0.51 mm    
 
 
Tabular Data for June 27, 2021
Time Temperature Dew Point Pressure Wind Wind Speed Wind Gust Humidity Rainfall Rate (Hourly) solar
00:04 19.8 °C 19 °C 1009.4 hPa Calm     95% 0.25 mm 0 W/m2
00:09 19.8 °C 19 °C 1009.4 hPa Calm     95% 0.25 mm 0 W/m2
00:14 19.8 °C 19 °C 1009.7 hPa Calm     95% 0.25 mm 0 W/m2
00:19 19.8 °C 19 °C 1009.7 hPa Calm     95% 0.25 mm 0 W/m2
00:24 19.9 °C 19.1 °C 1009.7 hPa Calm     95% 0.25 mm 0 W/m2
00:29 19.9 °C 19.1 °C 1009.7 hPa West 0.2 km/h 4.8 km/h 95% 0.25 mm 0 W/m2
00:34 19.9 °C 19.1 °C 1009.7 hPa West 0.2 km/h 4.8 km/h 95% 0.25 mm 0 W/m2
00:39 19.9 °C 19.2 °C 1009.7 hPa Calm   4.8 km/h 95.2% 0 mm 0 W/m2
00:44 19.9 °C 19.2 °C 1009.4 hPa Calm   4.8 km/h 95.2% 0 mm 0 W/m2
00:49 20 °C 19.3 °C 1009.4 hPa West 0.2 km/h 4.8 km/h 96% 0 mm 0 W/m2
00:54 20 °C 19.4 °C 1009.4 hPa West 0.3 km/h 4.8 km/h 96% 0 mm 0 W/m2
00:59 20.1 °C 19.4 °C 1009.7 hPa West 0.3 km/h 8 km/h 96% 0 mm 0 W/m2
01:04 20.1 °C 19.4 °C 1009.7 hPa West 0.2 km/h 8 km/h 96% 0 mm 0 W/m2
01:09 20.1 °C 19.4 °C 1009.7 hPa Calm   3.2 km/h 96% 0 mm 0 W/m2
01:14 20.1 °C 19.4 °C 1009.7 hPa West 1 km/h 9.7 km/h 96% 0 mm 0 W/m2
01:19 20.1 °C 19.4 °C 1009.7 hPa West 0.3 km/h 9.7 km/h 96% 0 mm 0 W/m2
01:24 20.1 °C 19.4 °C 1009.7 hPa Calm   9.7 km/h 96% 0 mm 0 W/m2
01:29 20.1 °C 19.4 °C 1010 hPa Calm   9.7 km/h 96% 0 mm 0 W/m2
01:34 20.1 °C 19.4 °C 1010 hPa Calm   9.7 km/h 96% 0 mm 0 W/m2
01:39 20.1 °C 19.4 °C 1010 hPa Calm     96% 0 mm 0 W/m2
01:44 20.1 °C 19.4 °C 1010 hPa Calm     96% 0 mm 0 W/m2
01:49 20.1 °C 19.4 °C 1010 hPa Calm     96% 0 mm 0 W/m2
01:54 20.1 °C 19.4 °C 1010 hPa Calm     96% 0 mm 0 W/m2
01:59 20.1 °C 19.4 °C 1010 hPa Calm     96% 0 mm 0 W/m2
02:04 20.2 °C 19.5 °C 1010 hPa Calm     96% 0 mm 0 W/m2
02:09 20.2 °C 19.5 °C 1010 hPa Calm     96% 0 mm 0 W/m2
02:14 20.2 °C 19.5 °C 1010 hPa Calm     96% 0 mm 0 W/m2
02:19 20.2 °C 19.5 °C 1010 hPa Calm     96% 0 mm 0 W/m2
02:24 20.2 °C 19.5 °C 1010 hPa Calm     96% 0 mm 0 W/m2
02:29 20.1 °C 19.4 °C 1010 hPa Calm     96% 0 mm 0 W/m2
02:34 20 °C 19.3 °C 1010 hPa Calm     96% 0 mm 0 W/m2
02:39 19.9 °C 19.2 °C 1010 hPa Calm     96% 0 mm 0 W/m2
02:44 19.7 °C 19.1 °C 1010 hPa Calm     95.7% 0 mm 0 W/m2
02:49 19.6 °C 18.8 °C 1010 hPa Calm     95% 0 mm 0 W/m2
02:54 19.5 °C 18.8 °C 1010 hPa Calm     95.7% 0 mm 0 W/m2
02:59 19.5 °C 18.8 °C 1010 hPa Calm     96% 0.25 mm 0 W/m2
03:04 19.4 °C 18.8 °C 1010 hPa Calm     96% 0.25 mm 0 W/m2
03:09 19.4 °C 18.8 °C 1009.7 hPa Calm     96% 0.25 mm 0 W/m2
03:14 19.4 °C 18.7 °C 1009.7 hPa Calm     96% 0.25 mm 0 W/m2
03:19 19.3 °C 18.7 °C 1010 hPa Calm     96% 0.25 mm 0 W/m2
03:24 19.3 °C 18.7 °C 1010 hPa Calm     96% 0.25 mm 0 W/m2
03:29 19.3 °C 18.7 °C 1010 hPa Calm     96% 0.25 mm 0 W/m2
03:34 19.3 °C 18.7 °C 1010 hPa Calm     96% 0.25 mm 0 W/m2
03:39 19.3 °C 18.7 °C 1010 hPa Calm     96% 0.25 mm 0 W/m2
03:44 19.3 °C 18.7 °C 1010 hPa Calm     96% 0.25 mm 0 W/m2
03:49 19.3 °C 18.7 °C 1010 hPa Calm     96% 0.25 mm 0 W/m2
03:54 19.3 °C 18.7 °C 1010 hPa Calm     96% 0.25 mm 0 W/m2
03:59 19.3 °C 18.7 °C 1010 hPa Calm     96% 0.25 mm 0 W/m2
04:00 19.3 °C 18.6 °C 1009.7 hPa Calm     96% 0.25 mm 0 W/m2
04:09 19.2 °C 18.6 °C 1010 hPa Calm     96% 0 mm 0 W/m2
04:14 19.2 °C 18.6 °C 1010 hPa Calm     96% 0 mm 0 W/m2
04:19 19.2 °C 18.5 °C 1010 hPa Calm     96% 0 mm 0 W/m2
04:24 19.2 °C 18.5 °C 1010 hPa Calm     96% 0 mm 0 W/m2
04:29 19.2 °C 18.6 °C 1010 hPa Calm     96% 0 mm 0 W/m2
04:34 19.2 °C 18.6 °C 1010 hPa Calm     96% 0.25 mm 0 W/m2
04:39 19.2 °C 18.6 °C 1010 hPa Calm     96% 0.25 mm 0 W/m2
04:44 19.2 °C 18.5 °C 1010 hPa Calm     96% 0.25 mm 0 W/m2
04:49 19.2 °C 18.5 °C 1010 hPa Calm     96% 0.25 mm 0 W/m2
04:54 19.2 °C 18.5 °C 1009.7 hPa Calm     96% 0.25 mm 0 W/m2
04:59 19.2 °C 18.5 °C 1009.7 hPa Calm     96% 0.25 mm 0 W/m2
05:04 19.2 °C 18.5 °C 1009.7 hPa Calm     96% 0.25 mm 0 W/m2
05:09 19.2 °C 18.5 °C 1009.7 hPa Calm     96% 0.25 mm 0 W/m2
05:14 19.2 °C 18.5 °C 1009.7 hPa Calm     96% 0.25 mm 0 W/m2
05:19 19.1 °C 18.5 °C 1009.7 hPa Calm     96% 0.25 mm 0 W/m2
05:24 19.1 °C 18.4 °C 1010 hPa Calm     96% 0.25 mm 0 W/m2
05:29 19.1 °C 18.4 °C 1010 hPa Calm     96% 0.25 mm 0 W/m2
05:34 19.1 °C 18.4 °C 1010 hPa Calm     96% 0.25 mm 0 W/m2
05:39 19 °C 18.3 °C 1010 hPa Calm     96% 0.25 mm 0 W/m2
05:44 18.9 °C 18.3 °C 1010.4 hPa Calm     96% 0.25 mm 0 W/m2
05:49 18.9 °C 18.2 °C 1010.4 hPa Calm     96% 0.25 mm 0 W/m2
05:54 18.8 °C 18.1 °C 1010.4 hPa Calm     96% 0.25 mm 5 W/m2
05:59 18.7 °C 18 °C 1010.4 hPa Calm     96% 0.25 mm 7 W/m2
06:04 18.6 °C 17.9 °C 1010.7 hPa Calm     96% 0.25 mm 11 W/m2
06:09 18.5 °C 17.8 °C 1010.7 hPa Calm     96% 0 mm 21 W/m2
06:14 18.4 °C 17.8 °C 1010.7 hPa Calm     96% 0 mm 25 W/m2
06:19 18.4 °C 17.8 °C 1010.7 hPa Calm     96% 0 mm 28 W/m2
06:24 18.5 °C 17.8 °C 1010.7 hPa Calm     96% 0 mm 35 W/m2
06:29 18.5 °C 17.8 °C 1010.7 hPa Calm     96% 0 mm 42 W/m2
06:34 18.6 °C 17.9 °C 1010.7 hPa Calm     96% 0 mm 44 W/m2
06:39 18.7 °C 18.1 °C 1011.1 hPa West 0.2 km/h 4.8 km/h 96.3% 0 mm 49 W/m2
06:44 18.9 °C 18.4 °C 1011.1 hPa Calm   4.8 km/h 97% 0 mm 54 W/m2
06:49 19 °C 18.5 °C 1011.1 hPa Calm   4.8 km/h 97% 0 mm 58 W/m2
06:54 19.1 °C 18.6 °C 1011.1 hPa Calm   4.8 km/h 97% 0 mm 60 W/m2
06:59 19.3 °C 18.8 °C 1011.1 hPa Calm   4.8 km/h 97% 0 mm 62 W/m2
07:04 19.4 °C 18.9 °C 1011.1 hPa Calm   4.8 km/h 97% 0 mm 65 W/m2
07:09 19.6 °C 19.1 °C 1011.1 hPa Calm     97% 0 mm 69 W/m2
07:14 19.8 °C 19.2 °C 1011.1 hPa Calm     96.4% 0 mm 98 W/m2
07:19 20.1 °C 19.4 °C 1011.4 hPa Calm     96% 0 mm 267 W/m2
07:24 20.4 °C 19.7 °C 1011.4 hPa Calm     95.6% 0 mm 290 W/m2
07:29 20.7 °C 19.8 °C 1011.4 hPa Calm     94.6% 0 mm 315 W/m2
07:34 21 °C 19.7 °C 1011.4 hPa Calm   1.6 km/h 92.4% 0 mm 338 W/m2
07:39 21.3 °C 19.5 °C 1011.4 hPa Calm   1.6 km/h 89.5% 0 mm 345 W/m2
07:44 21.6 °C 19.3 °C 1011.4 hPa Calm   4.8 km/h 86.8% 0 mm 359 W/m2
07:49 21.8 °C 18.9 °C 1011.4 hPa West 0.6 km/h 8 km/h 83.8% 0 mm 387 W/m2
07:54 21.9 °C 19.1 °C 1011.4 hPa NW 1.3 km/h 11.3 km/h 83.6% 0 mm 408 W/m2
07:59 22.2 °C 18.7 °C 1011.7 hPa NW 3.9 km/h 16.1 km/h 80.3% 0 mm 424 W/m2
08:00 22.3 °C 18.5 °C 1011.4 hPa Calm   16.1 km/h 79% 0 mm 427 W/m2
08:09 22.7 °C 18.7 °C 1011.7 hPa WNW 1.9 km/h 9.7 km/h 78.5% 0 mm 459 W/m2
08:14 22.8 °C 18.5 °C 1011.7 hPa WNW 4.5 km/h 19.3 km/h 76.7% 0 mm 475 W/m2
08:19 22.9 °C 17.8 °C 1011.7 hPa WNW 7.9 km/h 19.3 km/h 72.9% 0 mm 494 W/m2
08:24 22.9 °C 17.7 °C 1011.7 hPa WNW 6.1 km/h 19.3 km/h 72.2% 0 mm 512 W/m2
08:29 23.1 °C 17.4 °C 1011.7 hPa NW 3.5 km/h 19.3 km/h 70.7% 0 mm 526 W/m2
08:34 23.1 °C 17.5 °C 1011.7 hPa NW 5.6 km/h 19.3 km/h 71% 0 mm 545 W/m2
08:39 23.1 °C 17.5 °C 1011.7 hPa NW 5 km/h 19.3 km/h 70.6% 0 mm 563 W/m2
08:44 23.2 °C 17.3 °C 1011.7 hPa WNW 4.2 km/h 19.3 km/h 69.5% 0 mm 578 W/m2
08:49 23.4 °C 17.4 °C 1011.7 hPa WNW 5.5 km/h 19.3 km/h 69.4% 0 mm 592 W/m2
08:54 23.5 °C 17.3 °C 1011.7 hPa WNW 4 km/h 19.3 km/h 68% 0 mm 608 W/m2
08:59 23.6 °C 17.4 °C 1011.7 hPa WNW 2.7 km/h 19.3 km/h 68.3% 0 mm 626 W/m2
09:04 23.9 °C 18 °C 1011.7 hPa NW 1.4 km/h 19.3 km/h 69.6% 0 mm 643 W/m2
09:09 24.2 °C 17.7 °C 1011.7 hPa WNW 4.3 km/h 11.3 km/h 67.2% 0 mm 654 W/m2
09:14 24.3 °C 17.9 °C 1011.7 hPa WNW 3.1 km/h 11.3 km/h 67.4% 0 mm 666 W/m2
09:19 24.4 °C 17.9 °C 1012.1 hPa NW 4.2 km/h 17.7 km/h 66.9% 0 mm 694 W/m2
09:24 24.6 °C 17.7 °C 1012.1 hPa NW 5.6 km/h 17.7 km/h 65.4% 0 mm 696 W/m2
09:29 24.8 °C 17.3 °C 1012.1 hPa WNW 6.3 km/h 17.7 km/h 63.1% 0 mm 715 W/m2
09:34 24.8 °C 17.2 °C 1012.1 hPa NW 4.8 km/h 20.9 km/h 62.7% 0 mm 733 W/m2
09:39 24.7 °C 16.9 °C 1012.1 hPa NW 5.6 km/h 20.9 km/h 61.7% 0 mm 758 W/m2
09:44 24.7 °C 17.4 °C 1012.1 hPa NW 1.4 km/h 20.9 km/h 63.9% 0 mm 763 W/m2
09:49 24.8 °C 16.8 °C 1012.1 hPa West 10.5 km/h 20.9 km/h 61.1% 0 mm 772 W/m2
09:54 24.7 °C 16.1 °C 1012.4 hPa WNW 11.4 km/h 24.1 km/h 58.7% 0 mm 779 W/m2
09:59 24.7 °C 16.2 °C 1012.4 hPa WNW 4.8 km/h 24.1 km/h 59.3% 0 mm 788 W/m2
10:04 24.8 °C 16.8 °C 1012.4 hPa NW 2.3 km/h 24.1 km/h 61.4% 0 mm 800 W/m2
10:09 24.9 °C 15.9 °C 1012.4 hPa WNW 9 km/h 20.9 km/h 57.6% 0 mm 817 W/m2
10:14 24.8 °C 15.1 °C 1012.4 hPa WNW 13 km/h 25.7 km/h 54.5% 0 mm 833 W/m2
10:19 24.7 °C 14.7 °C 1012.4 hPa WNW 9.2 km/h 25.7 km/h 53.8% 0 mm 842 W/m2
10:24 24.6 °C 14.7 °C 1012.4 hPa NW 10.6 km/h 27.4 km/h 53.9% 0 mm 853 W/m2
10:29 24.6 °C 14.4 °C 1012.4 hPa NW 10.6 km/h 27.4 km/h 53.2% 0 mm 865 W/m2
10:34 24.8 °C 14.7 °C 1012.4 hPa WNW 6 km/h 27.4 km/h 53.5% 0 mm 874 W/m2
10:39 24.9 °C 14 °C 1012.8 hPa WNW 10.5 km/h 24.1 km/h 50.9% 0 mm 884 W/m2
10:44 24.9 °C 14.1 °C 1012.8 hPa NW 7.9 km/h 24.1 km/h 51.1% 0 mm 893 W/m2
10:48 24.9 °C 13.8 °C 1012.8 hPa WNW 13.5 km/h 30.6 km/h 50.1% 0 mm 902 W/m2
11:00 24.7 °C 13.2 °C 1012.8 hPa NW 11.3 km/h 33.8 km/h 49% 0 mm 894 W/m2
11:30 24.9 °C 12.6 °C 1012.8 hPa NW 12.9 km/h 30.6 km/h 46% 0 mm 949 W/m2
12:03 25.5 °C 13.4 °C 1012.8 hPa NW 8 km/h 12.9 km/h 47% 0 mm 995 W/m2
Hartford County Weather
Compliments of Weather Underground - 2 mb